sensor_id;sensor_type;location;lat;lon;timestamp;P1;durP1;ratioP1;P2;durP2;ratioP2
11453;SDS011;5783;55.174;61.310;2022-11-18T00:01:42;7.13;;;5.30;;
11453;SDS011;5783;55.174;61.310;2022-11-18T00:04:11;7.57;;;5.47;;
11453;SDS011;5783;55.174;61.310;2022-11-18T00:06:41;6.50;;;4.97;;
11453;SDS011;5783;55.174;61.310;2022-11-18T00:09:10;8.13;;;4.80;;
11453;SDS011;5783;55.174;61.310;2022-11-18T00:11:39;6.80;;;5.43;;
11453;SDS011;5783;55.174;61.310;2022-11-18T00:14:28;6.57;;;5.40;;
11453;SDS011;5783;55.174;61.310;2022-11-18T00:16:58;6.67;;;5.17;;
11453;SDS011;5783;55.174;61.310;2022-11-18T00:22:02;7.27;;;5.70;;
11453;SDS011;5783;55.174;61.310;2022-11-18T00:24:32;6.77;;;5.30;;
11453;SDS011;5783;55.174;61.310;2022-11-18T00:27:02;6.17;;;4.97;;
11453;SDS011;5783;55.174;61.310;2022-11-18T00:29:31;6.63;;;5.07;;
11453;SDS011;5783;55.174;61.310;2022-11-18T00:32:00;6.80;;;5.00;;
11453;SDS011;5783;55.174;61.310;2022-11-18T00:34:30;7.47;;;4.90;;
11453;SDS011;5783;55.174;61.310;2022-11-18T00:36:59;5.97;;;4.97;;
11453;SDS011;5783;55.174;61.310;2022-11-18T00:39:28;6.27;;;5.30;;
11453;SDS011;5783;55.174;61.310;2022-11-18T00:41:57;8.30;;;5.30;;
11453;SDS011;5783;55.174;61.310;2022-11-18T00:44:45;7.07;;;5.20;;
11453;SDS011;5783;55.174;61.310;2022-11-18T00:47:14;6.63;;;5.40;;
11453;SDS011;5783;55.174;61.310;2022-11-18T00:49:44;8.37;;;5.70;;
11453;SDS011;5783;55.174;61.310;2022-11-18T00:52:13;7.73;;;5.87;;
11453;SDS011;5783;55.174;61.310;2022-11-18T00:54:42;8.33;;;5.87;;
11453;SDS011;5783;55.174;61.310;2022-11-18T00:57:11;8.47;;;5.87;;
11453;SDS011;5783;55.174;61.310;2022-11-18T00:59:40;7.57;;;5.70;;
11453;SDS011;5783;55.174;61.310;2022-11-18T01:02:09;8.57;;;5.97;;
11453;SDS011;5783;55.174;61.310;2022-11-18T01:04:40;8.20;;;5.83;;
11453;SDS011;5783;55.174;61.310;2022-11-18T01:07:09;8.80;;;6.07;;
11453;SDS011;5783;55.174;61.310;2022-11-18T01:09:38;7.47;;;5.23;;
11453;SDS011;5783;55.174;61.310;2022-11-18T01:12:09;6.13;;;5.00;;
11453;SDS011;5783;55.174;61.310;2022-11-18T01:14:58;6.97;;;5.10;;
11453;SDS011;5783;55.174;61.310;2022-11-18T01:20:16;6.93;;;5.17;;
11453;SDS011;5783;55.174;61.310;2022-11-18T01:22:45;6.63;;;4.90;;
11453;SDS011;5783;55.174;61.310;2022-11-18T01:25:14;7.40;;;5.40;;
11453;SDS011;5783;55.174;61.310;2022-11-18T01:27:43;7.60;;;5.20;;
11453;SDS011;5783;55.174;61.310;2022-11-18T01:30:13;8.10;;;5.37;;
11453;SDS011;5783;55.174;61.310;2022-11-18T01:32:42;7.07;;;4.70;;
11453;SDS011;5783;55.174;61.310;2022-11-18T01:35:12;6.47;;;4.80;;
11453;SDS011;5783;55.174;61.310;2022-11-18T01:37:41;8.87;;;5.10;;
11453;SDS011;5783;55.174;61.310;2022-11-18T01:40:10;8.43;;;4.90;;
11453;SDS011;5783;55.174;61.310;2022-11-18T01:42:40;7.20;;;5.03;;
11453;SDS011;5783;55.174;61.310;2022-11-18T01:48:01;6.83;;;4.80;;
11453;SDS011;5783;55.174;61.310;2022-11-18T01:50:52;7.20;;;4.87;;
11453;SDS011;5783;55.174;61.310;2022-11-18T01:53:23;8.43;;;5.50;;
11453;SDS011;5783;55.174;61.310;2022-11-18T01:55:54;7.73;;;5.27;;
11453;SDS011;5783;55.174;61.310;2022-11-18T01:58:26;6.83;;;5.13;;
11453;SDS011;5783;55.174;61.310;2022-11-18T02:00:58;7.43;;;5.20;;
11453;SDS011;5783;55.174;61.310;2022-11-18T02:03:28;8.13;;;5.20;;
11453;SDS011;5783;55.174;61.310;2022-11-18T02:05:57;6.90;;;5.60;;
11453;SDS011;5783;55.174;61.310;2022-11-18T02:08:29;8.60;;;6.00;;
11453;SDS011;5783;55.174;61.310;2022-11-18T02:11:00;9.77;;;5.70;;
11453;SDS011;5783;55.174;61.310;2022-11-18T02:13:31;7.23;;;5.57;;
11453;SDS011;5783;55.174;61.310;2022-11-18T02:39:38;8.37;;;6.17;;
11453;SDS011;5783;55.174;61.310;2022-11-18T02:42:28;9.27;;;6.23;;
11453;SDS011;5783;55.174;61.310;2022-11-18T02:45:01;9.40;;;5.90;;
11453;SDS011;5783;55.174;61.310;2022-11-18T02:47:50;8.37;;;6.00;;
11453;SDS011;5783;55.174;61.310;2022-11-18T02:50:22;7.87;;;5.93;;
11453;SDS011;5783;55.174;61.310;2022-11-18T02:52:54;9.30;;;5.70;;
11453;SDS011;5783;55.174;61.310;2022-11-18T02:55:26;9.90;;;5.80;;
11453;SDS011;5783;55.174;61.310;2022-11-18T02:57:59;9.70;;;5.57;;
11453;SDS011;5783;55.174;61.310;2022-11-18T03:00:30;8.70;;;5.70;;
11453;SDS011;5783;55.174;61.310;2022-11-18T03:03:00;8.93;;;5.50;;
11453;SDS011;5783;55.174;61.310;2022-11-18T03:12:10;8.07;;;5.57;;
11453;SDS011;5783;55.174;61.310;2022-11-18T03:27:01;6.83;;;4.97;;
11453;SDS011;5783;55.174;61.310;2022-11-18T03:29:29;7.27;;;5.63;;
11453;SDS011;5783;55.174;61.310;2022-11-18T03:34:51;6.17;;;4.83;;
11453;SDS011;5783;55.174;61.310;2022-11-18T03:37:22;7.13;;;5.03;;
11453;SDS011;5783;55.174;61.310;2022-11-18T03:39:56;7.23;;;4.87;;
11453;SDS011;5783;55.174;61.310;2022-11-18T03:48:08;7.07;;;4.90;;
11453;SDS011;5783;55.174;61.310;2022-11-18T03:50:59;7.30;;;4.63;;
11453;SDS011;5783;55.174;61.310;2022-11-18T03:53:50;6.63;;;4.67;;
11453;SDS011;5783;55.174;61.310;2022-11-18T03:56:21;7.27;;;4.80;;
11453;SDS011;5783;55.174;61.310;2022-11-18T03:59:33;6.33;;;4.20;;
11453;SDS011;5783;55.174;61.310;2022-11-18T04:02:03;6.17;;;4.20;;
11453;SDS011;5783;55.174;61.310;2022-11-18T04:04:53;6.43;;;4.50;;
11453;SDS011;5783;55.174;61.310;2022-11-18T04:13:06;7.37;;;5.53;;
11453;SDS011;5783;55.174;61.310;2022-11-18T04:15:55;7.30;;;5.23;;
11453;SDS011;5783;55.174;61.310;2022-11-18T04:18:25;8.17;;;5.90;;
11453;SDS011;5783;55.174;61.310;2022-11-18T04:20:55;9.00;;;5.87;;
11453;SDS011;5783;55.174;61.310;2022-11-18T04:23:24;8.07;;;5.33;;
11453;SDS011;5783;55.174;61.310;2022-11-18T04:25:53;8.07;;;5.60;;
11453;SDS011;5783;55.174;61.310;2022-11-18T04:28:22;8.77;;;6.00;;
11453;SDS011;5783;55.174;61.310;2022-11-18T04:30:51;8.43;;;5.80;;
11453;SDS011;5783;55.174;61.310;2022-11-18T04:33:20;10.93;;;6.83;;
11453;SDS011;5783;55.174;61.310;2022-11-18T04:35:49;8.90;;;6.33;;
11453;SDS011;5783;55.174;61.310;2022-11-18T04:38:21;10.00;;;7.00;;
11453;SDS011;5783;55.174;61.310;2022-11-18T04:40:49;9.73;;;7.07;;
11453;SDS011;5783;55.174;61.310;2022-11-18T04:43:18;10.40;;;7.27;;
11453;SDS011;5783;55.174;61.310;2022-11-18T04:45:47;10.90;;;7.43;;
11453;SDS011;5783;55.174;61.310;2022-11-18T04:48:16;11.27;;;7.73;;
11453;SDS011;5783;55.174;61.310;2022-11-18T04:50:46;11.80;;;7.57;;
11453;SDS011;5783;55.174;61.310;2022-11-18T04:53:15;12.93;;;7.97;;
11453;SDS011;5783;55.174;61.310;2022-11-18T04:55:44;10.43;;;7.70;;
11453;SDS011;5783;55.174;61.310;2022-11-18T04:58:13;11.77;;;7.63;;
11453;SDS011;5783;55.174;61.310;2022-11-18T05:00:42;12.13;;;7.77;;
11453;SDS011;5783;55.174;61.310;2022-11-18T05:03:11;14.53;;;7.90;;
11453;SDS011;5783;55.174;61.310;2022-11-18T05:05:42;13.90;;;8.43;;
11453;SDS011;5783;55.174;61.310;2022-11-18T05:08:11;11.47;;;8.10;;
11453;SDS011;5783;55.174;61.310;2022-11-18T05:10:40;12.00;;;8.10;;
11453;SDS011;5783;55.174;61.310;2022-11-18T05:13:11;11.60;;;8.20;;
11453;SDS011;5783;55.174;61.310;2022-11-18T05:15:40;12.47;;;8.30;;
11453;SDS011;5783;55.174;61.310;2022-11-18T05:18:09;14.07;;;8.67;;
11453;SDS011;5783;55.174;61.310;2022-11-18T05:20:38;12.87;;;8.27;;
11453;SDS011;5783;55.174;61.310;2022-11-18T05:23:08;11.50;;;7.87;;
11453;SDS011;5783;55.174;61.310;2022-11-18T05:25:37;13.33;;;7.03;;
11453;SDS011;5783;55.174;61.310;2022-11-18T05:28:06;9.73;;;6.40;;
11453;SDS011;5783;55.174;61.310;2022-11-18T05:30:35;8.43;;;6.20;;
11453;SDS011;5783;55.174;61.310;2022-11-18T05:33:04;7.83;;;5.60;;
11453;SDS011;5783;55.174;61.310;2022-11-18T05:35:35;7.63;;;5.37;;
11453;SDS011;5783;55.174;61.310;2022-11-18T05:38:04;6.17;;;4.93;;
11453;SDS011;5783;55.174;61.310;2022-11-18T05:40:33;9.33;;;5.70;;
11453;SDS011;5783;55.174;61.310;2022-11-18T05:43:02;7.80;;;5.20;;
11453;SDS011;5783;55.174;61.310;2022-11-18T05:45:51;6.50;;;5.07;;
11453;SDS011;5783;55.174;61.310;2022-11-18T05:48:20;8.80;;;5.17;;
11453;SDS011;5783;55.174;61.310;2022-11-18T05:50:50;6.37;;;4.70;;
11453;SDS011;5783;55.174;61.310;2022-11-18T05:59:17;7.17;;;5.37;;
11453;SDS011;5783;55.174;61.310;2022-11-18T06:01:50;7.17;;;5.03;;
11453;SDS011;5783;55.174;61.310;2022-11-18T06:04:22;6.87;;;4.93;;
11453;SDS011;5783;55.174;61.310;2022-11-18T06:10:01;5.57;;;4.37;;
11453;SDS011;5783;55.174;61.310;2022-11-18T06:12:33;7.27;;;4.27;;
11453;SDS011;5783;55.174;61.310;2022-11-18T06:15:05;6.03;;;4.23;;
11453;SDS011;5783;55.174;61.310;2022-11-18T06:17:35;5.27;;;4.30;;
11453;SDS011;5783;55.174;61.310;2022-11-18T06:23:13;5.63;;;4.17;;
11453;SDS011;5783;55.174;61.310;2022-11-18T06:25:42;5.23;;;4.27;;
11453;SDS011;5783;55.174;61.310;2022-11-18T06:28:12;5.67;;;4.40;;
11453;SDS011;5783;55.174;61.310;2022-11-18T06:30:44;5.10;;;4.17;;
11453;SDS011;5783;55.174;61.310;2022-11-18T06:33:13;6.93;;;4.47;;
11453;SDS011;5783;55.174;61.310;2022-11-18T06:35:42;5.87;;;4.60;;
11453;SDS011;5783;55.174;61.310;2022-11-18T06:38:11;5.63;;;4.17;;
11453;SDS011;5783;55.174;61.310;2022-11-18T06:40:40;5.70;;;3.87;;
11453;SDS011;5783;55.174;61.310;2022-11-18T06:43:10;7.10;;;4.30;;
11453;SDS011;5783;55.174;61.310;2022-11-18T06:46:00;5.53;;;4.40;;
11453;SDS011;5783;55.174;61.310;2022-11-18T06:48:50;5.33;;;4.23;;
11453;SDS011;5783;55.174;61.310;2022-11-18T06:51:19;7.53;;;4.50;;
11453;SDS011;5783;55.174;61.310;2022-11-18T06:53:49;6.40;;;4.37;;
11453;SDS011;5783;55.174;61.310;2022-11-18T06:56:19;4.83;;;3.63;;
11453;SDS011;5783;55.174;61.310;2022-11-18T07:01:38;5.70;;;4.43;;
11453;SDS011;5783;55.174;61.310;2022-11-18T07:04:08;5.47;;;4.17;;
11453;SDS011;5783;55.174;61.310;2022-11-18T07:06:37;8.10;;;3.77;;
11453;SDS011;5783;55.174;61.310;2022-11-18T07:09:06;5.73;;;3.97;;
11453;SDS011;5783;55.174;61.310;2022-11-18T07:11:35;4.00;;;3.60;;
11453;SDS011;5783;55.174;61.310;2022-11-18T07:19:43;5.03;;;3.87;;
11453;SDS011;5783;55.174;61.310;2022-11-18T07:22:13;5.47;;;3.70;;
11453;SDS011;5783;55.174;61.310;2022-11-18T07:24:42;4.33;;;3.70;;
11453;SDS011;5783;55.174;61.310;2022-11-18T07:27:11;4.17;;;3.00;;
11453;SDS011;5783;55.174;61.310;2022-11-18T07:29:40;3.63;;;3.20;;
11453;SDS011;5783;55.174;61.310;2022-11-18T07:32:13;4.60;;;3.40;;
11453;SDS011;5783;55.174;61.310;2022-11-18T07:34:42;4.87;;;3.40;;
11453;SDS011;5783;55.174;61.310;2022-11-18T07:37:11;4.03;;;3.20;;
11453;SDS011;5783;55.174;61.310;2022-11-18T07:39:40;3.60;;;3.07;;
11453;SDS011;5783;55.174;61.310;2022-11-18T07:42:10;4.17;;;3.10;;
11453;SDS011;5783;55.174;61.310;2022-11-18T07:44:39;6.00;;;4.00;;
11453;SDS011;5783;55.174;61.310;2022-11-18T07:47:08;5.60;;;3.70;;
11453;SDS011;5783;55.174;61.310;2022-11-18T07:49:37;5.70;;;3.40;;
11453;SDS011;5783;55.174;61.310;2022-11-18T07:52:06;4.60;;;3.23;;
11453;SDS011;5783;55.174;61.310;2022-11-18T07:54:35;3.80;;;3.17;;
11453;SDS011;5783;55.174;61.310;2022-11-18T07:57:04;4.07;;;2.80;;
11453;SDS011;5783;55.174;61.310;2022-11-18T07:59:35;5.00;;;3.20;;
11453;SDS011;5783;55.174;61.310;2022-11-18T08:02:04;4.97;;;3.40;;
11453;SDS011;5783;55.174;61.310;2022-11-18T08:04:33;4.40;;;3.53;;
11453;SDS011;5783;55.174;61.310;2022-11-18T08:07:04;3.77;;;3.00;;
11453;SDS011;5783;55.174;61.310;2022-11-18T08:09:34;4.63;;;3.33;;
11453;SDS011;5783;55.174;61.310;2022-11-18T08:12:03;4.63;;;2.90;;
11453;SDS011;5783;55.174;61.310;2022-11-18T08:14:33;4.23;;;3.10;;
11453;SDS011;5783;55.174;61.310;2022-11-18T08:17:02;5.03;;;3.43;;
11453;SDS011;5783;55.174;61.310;2022-11-18T08:19:33;4.70;;;3.30;;
11453;SDS011;5783;55.174;61.310;2022-11-18T08:22:02;5.77;;;3.60;;
11453;SDS011;5783;55.174;61.310;2022-11-18T08:24:31;4.93;;;3.40;;
11453;SDS011;5783;55.174;61.310;2022-11-18T08:27:00;5.30;;;3.13;;
11453;SDS011;5783;55.174;61.310;2022-11-18T08:29:29;4.70;;;3.53;;
11453;SDS011;5783;55.174;61.310;2022-11-18T08:31:58;5.40;;;3.37;;
11453;SDS011;5783;55.174;61.310;2022-11-18T08:34:27;5.57;;;3.40;;
11453;SDS011;5783;55.174;61.310;2022-11-18T08:36:56;4.03;;;3.03;;
11453;SDS011;5783;55.174;61.310;2022-11-18T08:39:25;4.30;;;3.40;;
11453;SDS011;5783;55.174;61.310;2022-11-18T08:41:56;4.67;;;3.20;;
11453;SDS011;5783;55.174;61.310;2022-11-18T08:44:25;3.33;;;3.03;;
11453;SDS011;5783;55.174;61.310;2022-11-18T08:46:56;5.40;;;3.13;;
11453;SDS011;5783;55.174;61.310;2022-11-18T08:49:25;3.97;;;3.20;;
11453;SDS011;5783;55.174;61.310;2022-11-18T08:51:54;4.17;;;3.07;;
11453;SDS011;5783;55.174;61.310;2022-11-18T08:54:23;4.67;;;3.27;;
11453;SDS011;5783;55.174;61.310;2022-11-18T08:56:52;4.33;;;3.40;;
11453;SDS011;5783;55.174;61.310;2022-11-18T08:59:22;5.40;;;3.20;;
11453;SDS011;5783;55.174;61.310;2022-11-18T09:01:51;6.63;;;3.57;;
11453;SDS011;5783;55.174;61.310;2022-11-18T09:04:20;4.30;;;3.50;;
11453;SDS011;5783;55.174;61.310;2022-11-18T09:06:49;5.10;;;3.60;;
11453;SDS011;5783;55.174;61.310;2022-11-18T09:09:18;5.37;;;3.60;;
11453;SDS011;5783;55.174;61.310;2022-11-18T09:11:47;4.10;;;3.50;;
11453;SDS011;5783;55.174;61.310;2022-11-18T09:14:16;5.77;;;3.80;;
11453;SDS011;5783;55.174;61.310;2022-11-18T09:16:45;5.87;;;3.90;;
11453;SDS011;5783;55.174;61.310;2022-11-18T09:19:15;5.50;;;3.60;;
11453;SDS011;5783;55.174;61.310;2022-11-18T09:21:44;6.20;;;4.23;;
11453;SDS011;5783;55.174;61.310;2022-11-18T09:24:14;6.27;;;4.23;;
11453;SDS011;5783;55.174;61.310;2022-11-18T09:26:43;5.27;;;3.83;;
11453;SDS011;5783;55.174;61.310;2022-11-18T09:29:14;5.97;;;4.03;;
11453;SDS011;5783;55.174;61.310;2022-11-18T09:31:43;6.40;;;4.23;;
11453;SDS011;5783;55.174;61.310;2022-11-18T09:34:13;7.00;;;4.30;;
11453;SDS011;5783;55.174;61.310;2022-11-18T09:36:42;5.83;;;4.03;;
11453;SDS011;5783;55.174;61.310;2022-11-18T09:39:13;6.77;;;4.10;;
11453;SDS011;5783;55.174;61.310;2022-11-18T09:50:13;6.53;;;4.40;;
11453;SDS011;5783;55.174;61.310;2022-11-18T09:55:52;5.70;;;3.90;;
11453;SDS011;5783;55.174;61.310;2022-11-18T10:01:12;6.50;;;3.50;;
11453;SDS011;5783;55.174;61.310;2022-11-18T10:03:44;4.60;;;3.73;;
11453;SDS011;5783;55.174;61.310;2022-11-18T10:21:22;4.50;;;3.67;;
11453;SDS011;5783;55.174;61.310;2022-11-18T10:27:16;5.23;;;3.90;;
11453;SDS011;5783;55.174;61.310;2022-11-18T10:41:44;5.53;;;3.60;;
11453;SDS011;5783;55.174;61.310;2022-11-18T10:49:59;6.47;;;4.00;;
11453;SDS011;5783;55.174;61.310;2022-11-18T10:52:30;5.30;;;3.93;;
11453;SDS011;5783;55.174;61.310;2022-11-18T11:00:42;4.97;;;4.00;;
11453;SDS011;5783;55.174;61.310;2022-11-18T11:03:32;7.03;;;4.27;;
11453;SDS011;5783;55.174;61.310;2022-11-18T11:09:42;6.30;;;3.70;;
11453;SDS011;5783;55.174;61.310;2022-11-18T11:14:53;7.80;;;4.10;;
11453;SDS011;5783;55.174;61.310;2022-11-18T11:35:01;5.77;;;4.13;;
11453;SDS011;5783;55.174;61.310;2022-11-18T11:46:46;5.87;;;4.03;;
11453;SDS011;5783;55.174;61.310;2022-11-18T11:49:17;5.10;;;3.77;;
11453;SDS011;5783;55.174;61.310;2022-11-18T12:00:39;5.93;;;4.30;;
11453;SDS011;5783;55.174;61.310;2022-11-18T12:06:03;6.47;;;4.03;;
11453;SDS011;5783;55.174;61.310;2022-11-18T12:08:34;5.50;;;4.53;;
11453;SDS011;5783;55.174;61.310;2022-11-18T12:17:06;5.07;;;3.97;;
11453;SDS011;5783;55.174;61.310;2022-11-18T12:19:55;4.63;;;3.87;;
11453;SDS011;5783;55.174;61.310;2022-11-18T12:22:57;5.40;;;4.00;;
11453;SDS011;5783;55.174;61.310;2022-11-18T12:34:03;5.30;;;4.03;;
11453;SDS011;5783;55.174;61.310;2022-11-18T12:36:34;4.83;;;3.70;;
11453;SDS011;5783;55.174;61.310;2022-11-18T12:54:46;5.47;;;3.93;;
11453;SDS011;5783;55.174;61.310;2022-11-18T12:59:56;5.70;;;4.00;;
11453;SDS011;5783;55.174;61.310;2022-11-18T13:02:26;4.53;;;3.70;;
11453;SDS011;5783;55.174;61.310;2022-11-18T13:08:08;7.80;;;3.73;;
11453;SDS011;5783;55.174;61.310;2022-11-18T13:11:31;5.60;;;3.63;;
11453;SDS011;5783;55.174;61.310;2022-11-18T13:14:05;4.87;;;3.97;;
11453;SDS011;5783;55.174;61.310;2022-11-18T13:16:57;4.50;;;3.90;;
11453;SDS011;5783;55.174;61.310;2022-11-18T13:22:36;4.57;;;3.63;;
11453;SDS011;5783;55.174;61.310;2022-11-18T13:25:26;4.00;;;3.47;;
11453;SDS011;5783;55.174;61.310;2022-11-18T13:33:36;5.00;;;3.70;;
11453;SDS011;5783;55.174;61.310;2022-11-18T13:42:20;6.00;;;4.20;;
11453;SDS011;5783;55.174;61.310;2022-11-18T13:44:38;5.20;;;4.07;;
11453;SDS011;5783;55.174;61.310;2022-11-18T14:01:38;3.93;;;3.50;;
11453;SDS011;5783;55.174;61.310;2022-11-18T14:10:06;3.37;;;3.03;;
11453;SDS011;5783;55.174;61.310;2022-11-18T14:12:37;4.47;;;3.47;;
11453;SDS011;5783;55.174;61.310;2022-11-18T14:18:17;6.80;;;3.23;;
11453;SDS011;5783;55.174;61.310;2022-11-18T14:21:06;4.83;;;3.00;;
11453;SDS011;5783;55.174;61.310;2022-11-18T14:23:37;5.40;;;3.63;;
11453;SDS011;5783;55.174;61.310;2022-11-18T14:26:09;5.70;;;3.30;;
11453;SDS011;5783;55.174;61.310;2022-11-18T14:28:38;4.57;;;3.30;;
11453;SDS011;5783;55.174;61.310;2022-11-18T14:36:48;4.50;;;3.27;;
11453;SDS011;5783;55.174;61.310;2022-11-18T14:42:09;5.07;;;3.40;;
11453;SDS011;5783;55.174;61.310;2022-11-18T14:44:40;5.90;;;3.80;;
11453;SDS011;5783;55.174;61.310;2022-11-18T14:49:57;5.37;;;3.60;;
11453;SDS011;5783;55.174;61.310;2022-11-18T14:52:26;6.73;;;3.33;;
11453;SDS011;5783;55.174;61.310;2022-11-18T14:54:56;4.27;;;3.30;;
11453;SDS011;5783;55.174;61.310;2022-11-18T14:57:25;4.47;;;3.50;;
11453;SDS011;5783;55.174;61.310;2022-11-18T14:59:54;6.13;;;3.40;;
11453;SDS011;5783;55.174;61.310;2022-11-18T15:02:23;5.60;;;3.17;;
11453;SDS011;5783;55.174;61.310;2022-11-18T15:04:52;4.00;;;3.13;;
11453;SDS011;5783;55.174;61.310;2022-11-18T15:07:22;4.50;;;3.37;;
11453;SDS011;5783;55.174;61.310;2022-11-18T15:09:51;4.43;;;3.20;;
11453;SDS011;5783;55.174;61.310;2022-11-18T15:12:20;4.00;;;3.07;;
11453;SDS011;5783;55.174;61.310;2022-11-18T15:14:49;3.53;;;2.70;;
11453;SDS011;5783;55.174;61.310;2022-11-18T15:17:18;3.93;;;3.10;;
11453;SDS011;5783;55.174;61.310;2022-11-18T15:19:47;4.57;;;3.00;;
11453;SDS011;5783;55.174;61.310;2022-11-18T15:22:16;5.50;;;2.80;;
11453;SDS011;5783;55.174;61.310;2022-11-18T15:24:45;3.63;;;2.90;;
11453;SDS011;5783;55.174;61.310;2022-11-18T15:27:16;3.67;;;2.70;;
11453;SDS011;5783;55.174;61.310;2022-11-18T15:29:46;3.97;;;3.07;;
11453;SDS011;5783;55.174;61.310;2022-11-18T15:37:58;4.37;;;3.10;;
11453;SDS011;5783;55.174;61.310;2022-11-18T15:43:19;5.70;;;2.90;;
11453;SDS011;5783;55.174;61.310;2022-11-18T15:45:55;3.77;;;3.10;;
11453;SDS011;5783;55.174;61.310;2022-11-18T15:48:40;4.63;;;3.23;;
11453;SDS011;5783;55.174;61.310;2022-11-18T15:51:12;3.43;;;3.03;;
11453;SDS011;5783;55.174;61.310;2022-11-18T15:53:44;5.60;;;3.00;;
11453;SDS011;5783;55.174;61.310;2022-11-18T15:59:04;5.50;;;3.30;;
11453;SDS011;5783;55.174;61.310;2022-11-18T16:01:35;5.03;;;3.17;;
11453;SDS011;5783;55.174;61.310;2022-11-18T16:04:06;3.60;;;2.97;;
11453;SDS011;5783;55.174;61.310;2022-11-18T16:06:37;4.00;;;3.20;;
11453;SDS011;5783;55.174;61.310;2022-11-18T16:09:26;5.17;;;3.03;;
11453;SDS011;5783;55.174;61.310;2022-11-18T16:12:16;4.73;;;3.13;;
11453;SDS011;5783;55.174;61.310;2022-11-18T16:15:05;4.53;;;3.27;;
11453;SDS011;5783;55.174;61.310;2022-11-18T16:17:54;4.13;;;3.00;;
11453;SDS011;5783;55.174;61.310;2022-11-18T16:20:24;5.30;;;3.33;;
11453;SDS011;5783;55.174;61.310;2022-11-18T16:25:43;3.80;;;2.93;;
11453;SDS011;5783;55.174;61.310;2022-11-18T16:33:51;6.20;;;3.47;;
11453;SDS011;5783;55.174;61.310;2022-11-18T16:39:11;4.47;;;3.00;;
11453;SDS011;5783;55.174;61.310;2022-11-18T16:41:42;6.07;;;3.40;;
11453;SDS011;5783;55.174;61.310;2022-11-18T16:44:13;4.57;;;3.17;;
11453;SDS011;5783;55.174;61.310;2022-11-18T16:49:33;3.87;;;3.00;;
11453;SDS011;5783;55.174;61.310;2022-11-18T16:52:02;4.40;;;3.00;;
11453;SDS011;5783;55.174;61.310;2022-11-18T16:54:34;6.03;;;2.60;;
11453;SDS011;5783;55.174;61.310;2022-11-18T16:57:03;3.70;;;2.97;;
11453;SDS011;5783;55.174;61.310;2022-11-18T16:59:32;4.13;;;3.20;;
11453;SDS011;5783;55.174;61.310;2022-11-18T17:02:01;4.10;;;2.80;;
11453;SDS011;5783;55.174;61.310;2022-11-18T17:04:31;4.67;;;2.90;;
11453;SDS011;5783;55.174;61.310;2022-11-18T17:07:02;4.27;;;3.20;;
11453;SDS011;5783;55.174;61.310;2022-11-18T17:09:32;4.60;;;3.03;;
11453;SDS011;5783;55.174;61.310;2022-11-18T17:12:01;5.50;;;3.60;;
11453;SDS011;5783;55.174;61.310;2022-11-18T17:14:31;4.03;;;3.13;;
11453;SDS011;5783;55.174;61.310;2022-11-18T17:17:02;4.30;;;2.87;;
11453;SDS011;5783;55.174;61.310;2022-11-18T17:19:31;4.47;;;3.30;;
11453;SDS011;5783;55.174;61.310;2022-11-18T17:22:01;3.80;;;3.30;;
11453;SDS011;5783;55.174;61.310;2022-11-18T17:24:30;3.70;;;3.27;;
11453;SDS011;5783;55.174;61.310;2022-11-18T17:26:59;4.87;;;3.40;;
11453;SDS011;5783;55.174;61.310;2022-11-18T17:29:29;3.70;;;3.07;;
11453;SDS011;5783;55.174;61.310;2022-11-18T17:31:59;5.00;;;3.40;;
11453;SDS011;5783;55.174;61.310;2022-11-18T17:34:28;3.80;;;2.97;;
11453;SDS011;5783;55.174;61.310;2022-11-18T17:36:57;4.10;;;3.03;;
11453;SDS011;5783;55.174;61.310;2022-11-18T17:39:26;3.70;;;2.73;;
11453;SDS011;5783;55.174;61.310;2022-11-18T17:41:56;3.83;;;3.20;;
11453;SDS011;5783;55.174;61.310;2022-11-18T17:44:45;3.97;;;3.30;;
11453;SDS011;5783;55.174;61.310;2022-11-18T17:47:14;4.10;;;3.30;;
11453;SDS011;5783;55.174;61.310;2022-11-18T17:49:43;4.53;;;3.20;;
11453;SDS011;5783;55.174;61.310;2022-11-18T17:52:12;4.27;;;3.03;;
11453;SDS011;5783;55.174;61.310;2022-11-18T17:54:43;4.07;;;3.30;;
11453;SDS011;5783;55.174;61.310;2022-11-18T17:57:12;4.50;;;3.50;;
11453;SDS011;5783;55.174;61.310;2022-11-18T17:59:41;5.03;;;3.67;;
11453;SDS011;5783;55.174;61.310;2022-11-18T18:02:10;4.07;;;3.07;;
11453;SDS011;5783;55.174;61.310;2022-11-18T18:04:40;3.60;;;3.30;;
11453;SDS011;5783;55.174;61.310;2022-11-18T18:07:09;3.63;;;3.03;;
11453;SDS011;5783;55.174;61.310;2022-11-18T18:09:38;3.73;;;3.20;;
11453;SDS011;5783;55.174;61.310;2022-11-18T18:12:07;4.03;;;3.27;;
11453;SDS011;5783;55.174;61.310;2022-11-18T18:14:55;4.90;;;3.40;;
11453;SDS011;5783;55.174;61.310;2022-11-18T18:17:25;5.23;;;3.40;;
11453;SDS011;5783;55.174;61.310;2022-11-18T18:19:54;5.80;;;3.30;;
11453;SDS011;5783;55.174;61.310;2022-11-18T18:22:23;4.20;;;3.37;;
11453;SDS011;5783;55.174;61.310;2022-11-18T18:24:52;4.60;;;3.07;;
11453;SDS011;5783;55.174;61.310;2022-11-18T18:27:21;7.13;;;3.57;;
11453;SDS011;5783;55.174;61.310;2022-11-18T18:29:50;4.80;;;3.50;;
11453;SDS011;5783;55.174;61.310;2022-11-18T18:32:20;4.37;;;3.00;;
11453;SDS011;5783;55.174;61.310;2022-11-18T18:37:20;3.83;;;3.30;;
11453;SDS011;5783;55.174;61.310;2022-11-18T18:39:49;4.97;;;3.60;;
11453;SDS011;5783;55.174;61.310;2022-11-18T18:42:19;4.33;;;3.37;;
11453;SDS011;5783;55.174;61.310;2022-11-18T18:44:48;3.33;;;2.90;;
11453;SDS011;5783;55.174;61.310;2022-11-18T18:47:37;3.63;;;2.97;;
11453;SDS011;5783;55.174;61.310;2022-11-18T18:50:06;4.93;;;3.50;;
11453;SDS011;5783;55.174;61.310;2022-11-18T18:52:35;4.93;;;3.40;;
11453;SDS011;5783;55.174;61.310;2022-11-18T18:57:35;5.37;;;3.50;;
11453;SDS011;5783;55.174;61.310;2022-11-18T19:00:05;3.97;;;3.37;;
11453;SDS011;5783;55.174;61.310;2022-11-18T19:02:35;4.20;;;3.40;;
11453;SDS011;5783;55.174;61.310;2022-11-18T19:05:04;4.70;;;3.47;;
11453;SDS011;5783;55.174;61.310;2022-11-18T19:07:34;4.63;;;3.50;;
11453;SDS011;5783;55.174;61.310;2022-11-18T19:10:04;4.77;;;3.73;;
11453;SDS011;5783;55.174;61.310;2022-11-18T19:12:33;4.43;;;3.53;;
11453;SDS011;5783;55.174;61.310;2022-11-18T19:15:22;5.67;;;3.73;;
11453;SDS011;5783;55.174;61.310;2022-11-18T19:17:51;4.87;;;3.57;;
11453;SDS011;5783;55.174;61.310;2022-11-18T19:20:20;5.70;;;4.07;;
11453;SDS011;5783;55.174;61.310;2022-11-18T19:23:09;5.90;;;3.73;;
11453;SDS011;5783;55.174;61.310;2022-11-18T19:25:38;4.87;;;3.70;;
11453;SDS011;5783;55.174;61.310;2022-11-18T19:28:09;4.93;;;3.77;;
11453;SDS011;5783;55.174;61.310;2022-11-18T19:30:38;5.30;;;3.60;;
11453;SDS011;5783;55.174;61.310;2022-11-18T19:33:07;4.47;;;3.60;;
11453;SDS011;5783;55.174;61.310;2022-11-18T19:35:37;6.10;;;4.10;;
11453;SDS011;5783;55.174;61.310;2022-11-18T19:38:06;5.40;;;3.87;;
11453;SDS011;5783;55.174;61.310;2022-11-18T19:40:36;5.27;;;3.80;;
11453;SDS011;5783;55.174;61.310;2022-11-18T19:43:06;6.60;;;3.97;;
11453;SDS011;5783;55.174;61.310;2022-11-18T19:45:36;7.03;;;4.20;;
11453;SDS011;5783;55.174;61.310;2022-11-18T19:48:05;6.00;;;4.17;;
11453;SDS011;5783;55.174;61.310;2022-11-18T19:50:34;5.87;;;3.97;;
11453;SDS011;5783;55.174;61.310;2022-11-18T19:53:03;7.70;;;4.23;;
11453;SDS011;5783;55.174;61.310;2022-11-18T19:55:34;5.33;;;3.73;;
11453;SDS011;5783;55.174;61.310;2022-11-18T19:58:03;6.87;;;4.43;;
11453;SDS011;5783;55.174;61.310;2022-11-18T20:00:32;5.23;;;3.93;;
11453;SDS011;5783;55.174;61.310;2022-11-18T20:03:01;7.53;;;3.97;;
11453;SDS011;5783;55.174;61.310;2022-11-18T20:05:33;6.40;;;4.27;;
11453;SDS011;5783;55.174;61.310;2022-11-18T20:08:22;6.27;;;4.13;;
11453;SDS011;5783;55.174;61.310;2022-11-18T20:10:52;5.17;;;3.80;;
11453;SDS011;5783;55.174;61.310;2022-11-18T20:13:21;5.27;;;4.10;;
11453;SDS011;5783;55.174;61.310;2022-11-18T20:15:50;5.63;;;4.33;;
11453;SDS011;5783;55.174;61.310;2022-11-18T20:18:19;5.77;;;4.20;;